Airfield :







YOU CAN JOIN US ON...

 
LOGIN :

Register | Disclaimer

   EN    FR    IT 

 









Legend :    VFR   Marginal VFR   IFR   Intensive IFR   Very Intensive IFR
Visi :
Ceiling :
>= 8 km
>= 3000ft
5 to 8 km
1000 to 3000 ft
1500m to 5 km
500 to 1000 ft
800 to 1500m
200 to 500 ft
< 800m
< 200 ft
Symbols :   Thunderstorms  Fog  Heavy snow  Heavy precipitations  Wind > 20 kt






- Airport Elevation : 461 ft
- IATA code : YYT


CYYT - St John's Int

CURRENT METAR :
  • 302231Z 22016G21KT 15SM OVC009 21/20 A3007 RMK SF8 SLP184 DENSITY ALT 1100FT

EXPIRED METARs :
  • 302200Z 23016G24KT 15SM BKN010 21/20 A3008 RMK SF7 SLP188 DENSITY ALT 1100FT
  • 302124Z 24015G23KT 15SM BKN013 22/20 A3008 RMK SC6 SLP189 DENSITY ALT 1200FT
  • 302100Z 23013G20KT 15SM BKN018 22/20 A3009 RMK SC6 SLP190 DENSITY ALT 1300FT
  • 302000Z 23015G20KT 15SM BKN015 23/20 A3008 RMK SC5 SLP189 DENSITY ALT 1300FT

TAF TAF CYYT
Valid from the 30 at 18:00 until the 01 at 18:00 UTC


301738Z 3018/0118 23018G28KT P6SM BKN020
TEMPO 3018/3022 SCT020
FM302200 23018G28KT 5SM -DZ BR BKN006 OVC025
TEMPO 3022/0113 P6SM NSW BKN012 BKN025
FM011300 24018G28KT 5SM -SHRA BR BKN012 BKN040 OVC120 RMK NXT FCST BY 010000Z
CZQX FIR / North America



MET'MAP, your aeronautical weather chart ! - Copyright ORBIFLY December 2007 - Disclaimer

ORBIFLY MET'MAP TEAM :

Programming & Development : Alexandra Zaïnal
Concept & original design : Baudouin d'Aumeries
Assistance for programming : Marc-Olivier Méhu
Technical & hardware support : Manuel Goepfert

Contact : metmap@orbifly.com




SOURCES & CREDITS :

   NOAA